sensor_id;sensor_type;location;lat;lon;timestamp;pressure;altitude;pressure_sealevel;temperature;humidity
23659;BME280;12006;42.666;23.326;2023-02-19T00:01:14;-17977.00;;;6.36;100.00
23659;BME280;12006;42.666;23.326;2023-02-19T00:03:41;-17661.06;;;6.39;100.00
23659;BME280;12006;42.666;23.326;2023-02-19T00:06:09;-17658.91;;;6.30;100.00
23659;BME280;12006;42.666;23.326;2023-02-19T00:08:36;-18285.59;;;6.03;100.00
23659;BME280;12006;42.666;23.326;2023-02-19T00:11:07;-18605.22;;;6.15;100.00
23659;BME280;12006;42.666;23.326;2023-02-19T00:13:39;-18604.69;;;6.13;100.00
23659;BME280;12006;42.666;23.326;2023-02-19T00:16:14;-18917.09;;;5.98;100.00
23659;BME280;12006;42.666;23.326;2023-02-19T00:18:40;-18919.84;;;6.08;100.00
23659;BME280;12006;42.666;23.326;2023-02-19T00:21:06;-18920.63;;;6.11;100.00
23659;BME280;12006;42.666;23.326;2023-02-19T00:23:32;-18919.19;;;6.05;100.00
23659;BME280;12006;42.666;23.326;2023-02-19T00:26:09;-19236.75;;;6.09;100.00
23659;BME280;12006;42.666;23.326;2023-02-19T00:28:35;-18919.84;;;6.08;100.00
23659;BME280;12006;42.666;23.326;2023-02-19T00:33:42;-19233.56;;;5.98;100.00
23659;BME280;12006;42.666;23.326;2023-02-19T00:36:08;-19234.75;;;6.02;100.00
23659;BME280;12006;42.666;23.326;2023-02-19T00:38:37;-19234.75;;;6.02;100.00
23659;BME280;12006;42.666;23.326;2023-02-19T00:41:04;-19232.09;;;5.92;100.00
23659;BME280;12006;42.666;23.326;2023-02-19T00:43:54;-19550.28;;;5.99;100.00
23659;BME280;12006;42.666;23.326;2023-02-19T00:48:49;-19550.41;;;5.99;100.00
23659;BME280;12006;42.666;23.326;2023-02-19T00:51:17;-19550.81;;;6.01;100.00
23659;BME280;12006;42.666;23.326;2023-02-19T00:53:43;-19234.63;;;6.02;100.00
23659;BME280;12006;42.666;23.326;2023-02-19T00:56:09;-19545.38;;;5.81;100.00
23659;BME280;12006;42.666;23.326;2023-02-19T00:58:34;-19548.09;;;5.91;100.00
23659;BME280;12006;42.666;23.326;2023-02-19T01:01:00;-19230.91;;;5.88;100.00
23659;BME280;12006;42.666;23.326;2023-02-19T01:03:26;-19546.19;;;5.84;100.00
23659;BME280;12006;42.666;23.326;2023-02-19T01:05:52;-19545.94;;;5.83;100.00
23659;BME280;12006;42.666;23.326;2023-02-19T01:08:18;-19231.81;;;5.91;100.00
23659;BME280;12006;42.666;23.326;2023-02-19T01:10:43;-19860.88;;;5.78;100.00
23659;BME280;12006;42.666;23.326;2023-02-19T01:13:09;-19228.09;;;5.77;100.00
23659;BME280;12006;42.666;23.326;2023-02-19T01:15:35;-19539.13;;;5.58;100.00
23659;BME280;12006;42.666;23.326;2023-02-19T01:18:01;-20169.97;;;5.52;100.00
23659;BME280;12006;42.666;23.326;2023-02-19T01:20:26;-20173.50;;;5.65;100.00
23659;BME280;12006;42.666;23.326;2023-02-19T01:22:52;-19851.19;;;5.43;100.00
23659;BME280;12006;42.666;23.326;2023-02-19T01:25:18;-20484.50;;;5.47;100.00
23659;BME280;12006;42.666;23.326;2023-02-19T01:27:43;-20489.81;;;5.65;100.00
23659;BME280;12006;42.666;23.326;2023-02-19T01:30:09;-20493.84;;;5.79;100.00
23659;BME280;12006;42.666;23.326;2023-02-19T01:32:35;-19863.66;;;5.88;100.00
23659;BME280;12006;42.666;23.326;2023-02-19T01:35:00;-19545.53;;;5.81;100.00
23659;BME280;12006;42.666;23.326;2023-02-19T01:37:26;-19549.47;;;5.96;100.00
23659;BME280;12006;42.666;23.326;2023-02-19T01:39:51;-19232.34;;;5.93;100.00
23659;BME280;12006;42.666;23.326;2023-02-19T01:42:17;-19546.19;;;5.84;100.00
23659;BME280;12006;42.666;23.326;2023-02-19T01:47:11;-19232.50;;;5.94;100.00
23659;BME280;12006;42.666;23.326;2023-02-19T01:49:49;-19231.81;;;5.91;100.00
23659;BME280;12006;42.666;23.326;2023-02-19T01:52:42;-19231.81;;;5.91;100.00
23659;BME280;12006;42.666;23.326;2023-02-19T01:55:10;-18913.81;;;5.85;100.00
23659;BME280;12006;42.666;23.326;2023-02-19T01:57:40;-19542.38;;;5.70;100.00
23659;BME280;12006;42.666;23.326;2023-02-19T02:00:11;-19545.38;;;5.81;100.00
23659;BME280;12006;42.666;23.326;2023-02-19T02:02:38;-19541.72;;;5.67;100.00
23659;BME280;12006;42.666;23.326;2023-02-19T02:05:09;-20169.25;;;5.50;100.00
23659;BME280;12006;42.666;23.326;2023-02-19T02:07:36;-20489.81;;;5.65;100.00
23659;BME280;12006;42.666;23.326;2023-02-19T02:10:20;-20175.47;;;5.72;100.00
23659;BME280;12006;42.666;23.326;2023-02-19T02:12:49;-20173.78;;;5.66;100.00
23659;BME280;12006;42.666;23.326;2023-02-19T02:15:16;-20170.53;;;5.54;100.00
23659;BME280;12006;42.666;23.326;2023-02-19T02:20:32;-20491.41;;;5.71;100.00
23659;BME280;12006;42.666;23.326;2023-02-19T02:23:07;-19860.03;;;5.75;100.00
23659;BME280;12006;42.666;23.326;2023-02-19T02:31:23;-19854.38;;;5.54;100.00
23659;BME280;12006;42.666;23.326;2023-02-19T02:33:52;-20170.94;;;5.56;100.00
23659;BME280;12006;42.666;23.326;2023-02-19T02:36:28;-20177.16;;;5.78;100.00
23659;BME280;12006;42.666;23.326;2023-02-19T02:38:56;-19547.00;;;5.87;100.00
23659;BME280;12006;42.666;23.326;2023-02-19T02:41:23;-19227.97;;;5.77;100.00
23659;BME280;12006;42.666;23.326;2023-02-19T02:43:49;-19228.63;;;5.79;100.00
23659;BME280;12006;42.666;23.326;2023-02-19T02:46:19;-19228.22;;;5.78;100.00
23659;BME280;12006;42.666;23.326;2023-02-19T02:48:49;-19542.13;;;5.69;100.00
23659;BME280;12006;42.666;23.326;2023-02-19T02:51:31;-19540.75;;;5.64;100.00
23659;BME280;12006;42.666;23.326;2023-02-19T02:54:13;-19541.03;;;5.65;100.00
23659;BME280;12006;42.666;23.326;2023-02-19T02:56:59;-19855.59;;;5.59;100.00
23659;BME280;12006;42.666;23.326;2023-02-19T02:59:28;-19538.84;;;5.57;100.00
23659;BME280;12006;42.666;23.326;2023-02-19T03:07:34;-19854.63;;;5.55;100.00
23659;BME280;12006;42.666;23.326;2023-02-19T03:10:04;-19853.81;;;5.52;100.00
23659;BME280;12006;42.666;23.326;2023-02-19T03:12:33;-19850.06;;;5.39;100.00
23659;BME280;12006;42.666;23.326;2023-02-19T03:15:18;-20166.44;;;5.40;100.00
23659;BME280;12006;42.666;23.326;2023-02-19T03:18:06;-20483.06;;;5.42;100.00
23659;BME280;12006;42.666;23.326;2023-02-19T03:20:55;-20163.91;;;5.31;100.00
23659;BME280;12006;42.666;23.326;2023-02-19T03:23:22;-20482.22;;;5.39;100.00
23659;BME280;12006;42.666;23.326;2023-02-19T03:26:11;-19846.75;;;5.27;100.00
23659;BME280;12006;42.666;23.326;2023-02-19T03:28:40;-20475.31;;;5.15;100.00
23659;BME280;12006;42.666;23.326;2023-02-19T03:31:28;-20792.09;;;5.18;100.00
23659;BME280;12006;42.666;23.326;2023-02-19T03:33:59;-20794.59;;;5.27;100.00
23659;BME280;12006;42.666;23.326;2023-02-19T03:36:34;-20478.31;;;5.26;100.00
23659;BME280;12006;42.666;23.326;2023-02-19T03:39:07;-20476.59;;;5.20;100.00
23659;BME280;12006;42.666;23.326;2023-02-19T03:44:15;-20476.75;;;5.20;100.00
23659;BME280;12006;42.666;23.326;2023-02-19T03:46:59;-20793.69;;;5.24;100.00
23659;BME280;12006;42.666;23.326;2023-02-19T03:49:43;-20791.66;;;5.17;100.00
23659;BME280;12006;42.666;23.326;2023-02-19T03:52:12;-20476.03;;;5.18;100.00
23659;BME280;12006;42.666;23.326;2023-02-19T03:55:27;-20468.97;;;4.93;100.00
23659;BME280;12006;42.666;23.326;2023-02-19T03:57:46;-20781.84;;;4.83;100.00
23659;BME280;12006;42.666;23.326;2023-02-19T04:00:40;-20784.94;;;4.94;100.00
23659;BME280;12006;42.666;23.326;2023-02-19T04:06:01;-21096.22;;;4.79;100.00
23659;BME280;12006;42.666;23.326;2023-02-19T04:08:28;-20783.59;;;4.89;100.00
23659;BME280;12006;42.666;23.326;2023-02-19T04:10:57;-20462.81;;;4.72;100.00
23659;BME280;12006;42.666;23.326;2023-02-19T04:13:31;-20779.94;;;4.77;100.00
23659;BME280;12006;42.666;23.326;2023-02-19T04:16:02;-20779.50;;;4.76;100.00
23659;BME280;12006;42.666;23.326;2023-02-19T04:18:35;-21093.53;;;4.70;100.00
23659;BME280;12006;42.666;23.326;2023-02-19T04:21:02;-21092.81;;;4.68;100.00
23659;BME280;12006;42.666;23.326;2023-02-19T04:23:34;-21401.75;;;4.46;100.00
23659;BME280;12006;42.666;23.326;2023-02-19T04:26:01;-21405.69;;;4.59;100.00
23659;BME280;12006;42.666;23.326;2023-02-19T04:28:28;-21405.06;;;4.57;100.00
23659;BME280;12006;42.666;23.326;2023-02-19T04:30:53;-21721.84;;;4.61;100.00
23659;BME280;12006;42.666;23.326;2023-02-19T04:33:19;-21404.94;;;4.56;100.00
23659;BME280;12006;42.666;23.326;2023-02-19T04:35:44;-21717.53;;;4.47;100.00
23659;BME280;12006;42.666;23.326;2023-02-19T04:38:10;-22035.16;;;4.54;100.00
23659;BME280;12006;42.666;23.326;2023-02-19T04:40:36;-22034.38;;;4.51;100.00
23659;BME280;12006;42.666;23.326;2023-02-19T04:43:01;-22032.81;;;4.46;100.00
23659;BME280;12006;42.666;23.326;2023-02-19T04:45:27;-22030.94;;;4.40;100.00
23659;BME280;12006;42.666;23.326;2023-02-19T04:47:52;-22032.03;;;4.44;100.00
23659;BME280;12006;42.666;23.326;2023-02-19T04:50:18;-22030.63;;;4.39;100.00
23659;BME280;12006;42.666;23.326;2023-02-19T04:52:43;-22022.31;;;4.13;100.00
23659;BME280;12006;42.666;23.326;2023-02-19T04:55:09;-22344.41;;;4.34;100.00
23659;BME280;12006;42.666;23.326;2023-02-19T04:57:34;-22342.66;;;4.29;100.00
23659;BME280;12006;42.666;23.326;2023-02-19T05:00:00;-22658.13;;;4.29;100.00
23659;BME280;12006;42.666;23.326;2023-02-19T05:02:26;-22656.00;;;4.23;100.00
23659;BME280;12006;42.666;23.326;2023-02-19T05:04:51;-22653.91;;;4.17;100.00
23659;BME280;12006;42.666;23.326;2023-02-19T05:07:17;-22973.56;;;4.30;100.00
23659;BME280;12006;42.666;23.326;2023-02-19T05:09:42;-22974.72;;;4.33;100.00
23659;BME280;12006;42.666;23.326;2023-02-19T05:12:08;-22972.25;;;4.26;100.00
23659;BME280;12006;42.666;23.326;2023-02-19T05:14:33;-22653.09;;;4.14;100.00
23659;BME280;12006;42.666;23.326;2023-02-19T05:16:59;-23283.47;;;4.14;100.00
23659;BME280;12006;42.666;23.326;2023-02-19T05:19:24;-22970.09;;;4.19;100.00
23659;BME280;12006;42.666;23.326;2023-02-19T05:21:49;-23287.66;;;4.26;100.00
23659;BME280;12006;42.666;23.326;2023-02-19T05:24:15;-22969.94;;;4.19;100.00
23659;BME280;12006;42.666;23.326;2023-02-19T05:26:40;-22972.91;;;4.28;100.00
23659;BME280;12006;42.666;23.326;2023-02-19T05:29:06;-22973.88;;;4.31;100.00
23659;BME280;12006;42.666;23.326;2023-02-19T05:31:31;-22969.13;;;4.17;100.00
23659;BME280;12006;42.666;23.326;2023-02-19T05:33:58;-22971.41;;;4.23;100.00
23659;BME280;12006;42.666;23.326;2023-02-19T05:36:23;-23290.47;;;4.35;100.00
23659;BME280;12006;42.666;23.326;2023-02-19T05:38:54;-23292.16;;;4.40;100.00
23659;BME280;12006;42.666;23.326;2023-02-19T05:41:25;-23292.47;;;4.41;100.00
23659;BME280;12006;42.666;23.326;2023-02-19T05:43:51;-22976.50;;;4.39;100.00
23659;BME280;12006;42.666;23.326;2023-02-19T05:46:19;-23292.16;;;4.40;100.00
23659;BME280;12006;42.666;23.326;2023-02-19T05:48:46;-23298.66;;;4.59;100.00
23659;BME280;12006;42.666;23.326;2023-02-19T05:51:15;-22983.75;;;4.61;100.00
23659;BME280;12006;42.666;23.326;2023-02-19T05:53:41;-23296.31;;;4.52;100.00
23659;BME280;12006;42.666;23.326;2023-02-19T05:56:39;-23301.34;;;4.67;100.00
23659;BME280;12006;42.666;23.326;2023-02-19T05:59:18;-23307.69;;;4.86;100.00
23659;BME280;12006;42.666;23.326;2023-02-19T06:01:45;-23302.84;;;4.72;100.00
23659;BME280;12006;42.666;23.326;2023-02-19T06:04:11;-23311.19;;;4.96;100.00
23659;BME280;12006;42.666;23.326;2023-02-19T06:06:37;-23000.50;;;5.11;100.00
23659;BME280;12006;42.666;23.326;2023-02-19T06:09:03;-23001.19;;;5.13;100.00
23659;BME280;12006;42.666;23.326;2023-02-19T06:11:29;-23004.13;;;5.22;100.00
23659;BME280;12006;42.666;23.326;2023-02-19T06:13:54;-23007.09;;;5.31;100.00
23659;BME280;12006;42.666;23.326;2023-02-19T06:16:20;-23012.03;;;5.46;100.00
23659;BME280;12006;42.666;23.326;2023-02-19T06:18:46;-22696.78;;;5.48;100.00
23659;BME280;12006;42.666;23.326;2023-02-19T06:21:12;-23020.41;;;5.71;100.00
23659;BME280;12006;42.666;23.326;2023-02-19T06:23:38;-22708.75;;;5.85;100.00
23659;BME280;12006;42.666;23.326;2023-02-19T06:26:09;-22395.03;;;5.92;100.00
23659;BME280;12006;42.666;23.326;2023-02-19T06:28:36;-22395.50;;;5.94;100.00
23659;BME280;12006;42.666;23.326;2023-02-19T06:31:01;-22716.53;;;6.08;100.00
23659;BME280;12006;42.666;23.326;2023-02-19T06:33:27;-22724.59;;;6.33;100.00
23659;BME280;12006;42.666;23.326;2023-02-19T06:35:53;-22727.19;;;6.41;100.00
23659;BME280;12006;42.666;23.326;2023-02-19T06:38:20;-22730.44;;;6.51;100.00
23659;BME280;12006;42.666;23.326;2023-02-19T06:40:46;-22735.94;;;6.68;100.00
23659;BME280;12006;42.666;23.326;2023-02-19T06:43:11;-22739.66;;;6.79;100.00
23659;BME280;12006;42.666;23.326;2023-02-19T06:45:37;-22742.88;;;6.89;100.00
23659;BME280;12006;42.666;23.326;2023-02-19T06:48:02;-22752.41;;;7.19;100.00
23659;BME280;12006;42.666;23.326;2023-02-19T06:50:28;-22444.81;;;7.47;100.00
23659;BME280;12006;42.666;23.326;2023-02-19T06:52:53;-22458.34;;;7.89;100.00
23659;BME280;12006;42.666;23.326;2023-02-19T06:55:18;-22152.25;;;8.25;100.00
23659;BME280;12006;42.666;23.326;2023-02-19T06:57:44;-21845.28;;;8.58;100.00
23659;BME280;12006;42.666;23.326;2023-02-19T07:00:09;-21534.00;;;8.79;100.00
23659;BME280;12006;42.666;23.326;2023-02-19T07:02:35;-21542.03;;;9.05;100.00
23659;BME280;12006;42.666;23.326;2023-02-19T07:05:00;-21227.41;;;9.16;100.00
23659;BME280;12006;42.666;23.326;2023-02-19T07:07:26;-21235.41;;;9.43;100.00
23659;BME280;12006;42.666;23.326;2023-02-19T07:09:51;-21239.88;;;9.58;100.00
23659;BME280;12006;42.666;23.326;2023-02-19T07:12:16;-20926.34;;;9.74;100.00
23659;BME280;12006;42.666;23.326;2023-02-19T07:14:42;-20930.28;;;9.87;100.00
23659;BME280;12006;42.666;23.326;2023-02-19T07:17:07;-20932.78;;;9.96;100.00
23659;BME280;12006;42.666;23.326;2023-02-19T07:19:32;-20934.06;;;10.00;97.75
23659;BME280;12006;42.666;23.326;2023-02-19T07:21:58;-20935.25;;;10.04;96.79
23659;BME280;12006;42.666;23.326;2023-02-19T07:24:23;-20935.69;;;10.06;95.89
23659;BME280;12006;42.666;23.326;2023-02-19T07:26:49;-20615.78;;;10.01;94.94
23659;BME280;12006;42.666;23.326;2023-02-19T07:29:14;-20939.03;;;10.17;94.95
23659;BME280;12006;42.666;23.326;2023-02-19T07:31:40;-21263.31;;;10.36;94.43
23659;BME280;12006;42.666;23.326;2023-02-19T07:34:06;-21267.31;;;10.50;92.13
23659;BME280;12006;42.666;23.326;2023-02-19T07:36:31;-21268.22;;;10.53;90.58
23659;BME280;12006;42.666;23.326;2023-02-19T07:38:58;-21269.09;;;10.56;91.99
23659;BME280;12006;42.666;23.326;2023-02-19T07:41:25;-21595.31;;;10.81;90.76
23659;BME280;12006;42.666;23.326;2023-02-19T07:43:50;-21599.69;;;10.95;89.24
23659;BME280;12006;42.666;23.326;2023-02-19T07:46:16;-21604.06;;;11.09;86.77
23659;BME280;12006;42.666;23.326;2023-02-19T07:48:42;-21927.59;;;11.24;85.02
23659;BME280;12006;42.666;23.326;2023-02-19T07:51:14;-21931.28;;;11.36;82.37
23659;BME280;12006;42.666;23.326;2023-02-19T07:53:46;-21936.19;;;11.52;79.39
23659;BME280;12006;42.666;23.326;2023-02-19T07:56:12;-21938.03;;;11.58;78.75
23659;BME280;12006;42.666;23.326;2023-02-19T07:58:38;-21941.56;;;11.69;78.11
23659;BME280;12006;42.666;23.326;2023-02-19T08:01:21;-22263.59;;;11.78;78.33
23659;BME280;12006;42.666;23.326;2023-02-19T08:04:06;-22266.88;;;11.89;77.19
23659;BME280;12006;42.666;23.326;2023-02-19T08:06:31;-22265.94;;;11.86;77.23
23659;BME280;12006;42.666;23.326;2023-02-19T08:08:57;-22592.34;;;12.08;76.70
23659;BME280;12006;42.666;23.326;2023-02-19T08:11:22;-22596.78;;;12.22;77.40
23659;BME280;12006;42.666;23.326;2023-02-19T08:14:06;-22599.63;;;12.31;74.95
23659;BME280;12006;42.666;23.326;2023-02-19T08:16:32;-22602.47;;;12.40;74.65
23659;BME280;12006;42.666;23.326;2023-02-19T08:18:57;-22927.00;;;12.55;73.81
23659;BME280;12006;42.666;23.326;2023-02-19T08:21:23;-22924.59;;;12.48;73.80
23659;BME280;12006;42.666;23.326;2023-02-19T08:23:48;-22926.69;;;12.54;75.14
23659;BME280;12006;42.666;23.326;2023-02-19T08:26:14;-22923.47;;;12.44;76.03
23659;BME280;12006;42.666;23.326;2023-02-19T08:28:40;-22923.28;;;12.44;75.74
23659;BME280;12006;42.666;23.326;2023-02-19T08:31:07;-22927.81;;;12.58;73.71
23659;BME280;12006;42.666;23.326;2023-02-19T08:33:33;-22933.78;;;12.76;70.96
23659;BME280;12006;42.666;23.326;2023-02-19T08:36:04;-22937.97;;;12.89;71.11
23659;BME280;12006;42.666;23.326;2023-02-19T08:38:31;-23262.78;;;13.04;69.86
23659;BME280;12006;42.666;23.326;2023-02-19T08:40:58;-23592.91;;;13.35;67.98
23659;BME280;12006;42.666;23.326;2023-02-19T08:43:24;-23602.38;;;13.63;66.23
23659;BME280;12006;42.666;23.326;2023-02-19T08:45:52;-23608.34;;;13.81;64.37
23659;BME280;12006;42.666;23.326;2023-02-19T08:48:18;-23611.50;;;13.91;63.83
23659;BME280;12006;42.666;23.326;2023-02-19T08:50:43;-23935.81;;;14.02;62.78
23659;BME280;12006;42.666;23.326;2023-02-19T08:53:08;-23939.34;;;14.13;62.74
23659;BME280;12006;42.666;23.326;2023-02-19T08:55:36;-23945.94;;;14.32;62.15
23659;BME280;12006;42.666;23.326;2023-02-19T08:58:02;-23952.84;;;14.53;61.14
23659;BME280;12006;42.666;23.326;2023-02-19T09:00:28;-24276.44;;;14.61;61.12
23659;BME280;12006;42.666;23.326;2023-02-19T09:02:53;-24277.66;;;14.65;60.81
23659;BME280;12006;42.666;23.326;2023-02-19T09:05:21;-24276.28;;;14.61;61.16
23659;BME280;12006;42.666;23.326;2023-02-19T09:07:46;-24277.81;;;14.65;62.28
23659;BME280;12006;42.666;23.326;2023-02-19T09:10:13;-24278.16;;;14.66;62.03
23659;BME280;12006;42.666;23.326;2023-02-19T09:12:38;-24277.81;;;14.65;61.81
23659;BME280;12006;42.666;23.326;2023-02-19T09:15:05;-24280.56;;;14.73;61.16
23659;BME280;12006;42.666;23.326;2023-02-19T09:17:30;-24282.09;;;14.78;61.23
23659;BME280;12006;42.666;23.326;2023-02-19T09:19:56;-24288.44;;;14.96;61.74
23659;BME280;12006;42.666;23.326;2023-02-19T09:22:21;-24290.16;;;15.01;60.03
23659;BME280;12006;42.666;23.326;2023-02-19T09:24:46;-24286.03;;;14.89;60.07
23659;BME280;12006;42.666;23.326;2023-02-19T09:27:17;-24288.09;;;14.95;60.64
23659;BME280;12006;42.666;23.326;2023-02-19T09:29:42;-24290.50;;;15.02;60.99
23659;BME280;12006;42.666;23.326;2023-02-19T09:32:08;-24286.38;;;14.90;61.10
23659;BME280;12006;42.666;23.326;2023-02-19T09:34:34;-24290.84;;;15.03;59.82
23659;BME280;12006;42.666;23.326;2023-02-19T09:36:59;-24294.94;;;15.15;59.64
23659;BME280;12006;42.666;23.326;2023-02-19T09:39:25;-24293.75;;;15.12;61.22
23659;BME280;12006;42.666;23.326;2023-02-19T09:44:46;-24298.53;;;15.20;60.56
23659;BME280;12006;42.666;23.326;2023-02-19T09:47:21;-24304.53;;;15.43;58.46
23659;BME280;12006;42.666;23.326;2023-02-19T09:49:49;-24308.66;;;15.49;58.13
23659;BME280;12006;42.666;23.326;2023-02-19T09:52:49;-24310.34;;;15.54;58.36
23659;BME280;12006;42.666;23.326;2023-02-19T09:55:35;-24318.75;;;15.78;59.54
23659;BME280;12006;42.666;23.326;2023-02-19T09:58:31;-24329.34;;;16.09;57.11
23659;BME280;12006;42.666;23.326;2023-02-19T10:01:03;-24335.00;;;16.26;56.33
23659;BME280;12006;42.666;23.326;2023-02-19T10:03:38;-24341.66;;;16.45;55.36
23659;BME280;12006;42.666;23.326;2023-02-19T10:06:10;-24340.97;;;16.43;54.45
23659;BME280;12006;42.666;23.326;2023-02-19T10:08:39;-24342.88;;;16.48;54.71
23659;BME280;12006;42.666;23.326;2023-02-19T10:11:05;-24347.81;;;16.63;53.55
23659;BME280;12006;42.666;23.326;2023-02-19T10:13:32;-24344.25;;;16.52;53.41
23659;BME280;12006;42.666;23.326;2023-02-19T10:16:01;-24342.34;;;16.47;52.78
23659;BME280;12006;42.666;23.326;2023-02-19T10:18:36;-24336.88;;;16.31;52.99
23659;BME280;12006;42.666;23.326;2023-02-19T10:21:02;-24340.47;;;16.41;53.33
23659;BME280;12006;42.666;23.326;2023-02-19T10:23:27;-24346.63;;;16.59;53.16
23659;BME280;12006;42.666;23.326;2023-02-19T10:25:55;-24351.59;;;16.74;52.47
23659;BME280;12006;42.666;23.326;2023-02-19T10:28:30;-24351.25;;;16.73;51.67
23659;BME280;12006;42.666;23.326;2023-02-19T10:31:00;-24342.69;;;16.48;51.87
23659;BME280;12006;42.666;23.326;2023-02-19T10:33:27;-24343.22;;;16.49;52.77
23659;BME280;12006;42.666;23.326;2023-02-19T10:36:01;-24343.72;;;16.51;52.39
23659;BME280;12006;42.666;23.326;2023-02-19T10:38:39;-24346.63;;;16.59;52.27
23659;BME280;12006;42.666;23.326;2023-02-19T10:41:18;-24349.88;;;16.69;51.19
23659;BME280;12006;42.666;23.326;2023-02-19T10:44:04;-24346.47;;;16.59;52.27
23659;BME280;12006;42.666;23.326;2023-02-19T10:46:35;-24357.91;;;16.92;52.19
23659;BME280;12006;42.666;23.326;2023-02-19T10:49:04;-24363.03;;;17.07;50.92
23659;BME280;12006;42.666;23.326;2023-02-19T10:51:36;-24366.28;;;17.16;50.85
23659;BME280;12006;42.666;23.326;2023-02-19T10:54:25;-24365.94;;;17.15;50.40
23659;BME280;12006;42.666;23.326;2023-02-19T10:56:52;-24359.78;;;16.98;50.86
23659;BME280;12006;42.666;23.326;2023-02-19T10:59:27;-24361.50;;;17.02;50.51
23659;BME280;12006;42.666;23.326;2023-02-19T11:02:00;-24365.78;;;17.15;50.61
23659;BME280;12006;42.666;23.326;2023-02-19T11:04:28;-24368.34;;;17.22;50.08
23659;BME280;12006;42.666;23.326;2023-02-19T11:07:06;-24369.72;;;17.26;50.36
23659;BME280;12006;42.666;23.326;2023-02-19T11:09:39;-24372.28;;;17.34;49.92
23659;BME280;12006;42.666;23.326;2023-02-19T11:12:07;-24372.97;;;17.36;49.67
23659;BME280;12006;42.666;23.326;2023-02-19T11:14:33;-24373.81;;;17.38;50.01
23659;BME280;12006;42.666;23.326;2023-02-19T11:17:01;-24377.94;;;17.50;49.46
23659;BME280;12006;42.666;23.326;2023-02-19T11:19:40;-24380.66;;;17.58;49.08
23659;BME280;12006;42.666;23.326;2023-02-19T11:22:29;-24384.94;;;17.70;48.16
23659;BME280;12006;42.666;23.326;2023-02-19T11:25:04;-24378.44;;;17.52;47.70
23659;BME280;12006;42.666;23.326;2023-02-19T11:27:31;-24373.47;;;17.37;47.99
23659;BME280;12006;42.666;23.326;2023-02-19T11:30:21;-24378.78;;;17.53;47.80
23659;BME280;12006;42.666;23.326;2023-02-19T11:32:56;-24380.16;;;17.57;47.61
23659;BME280;12006;42.666;23.326;2023-02-19T11:35:22;-24380.50;;;17.58;47.83
23659;BME280;12006;42.666;23.326;2023-02-19T11:37:58;-24386.28;;;17.74;48.20
23659;BME280;12006;42.666;23.326;2023-02-19T11:40:39;-24385.78;;;17.73;46.26
23659;BME280;12006;42.666;23.326;2023-02-19T11:46:03;-24381.84;;;17.62;46.67
23659;BME280;12006;42.666;23.326;2023-02-19T11:54:14;-24385.09;;;17.71;45.47
23659;BME280;12006;42.666;23.326;2023-02-19T11:56:42;-24389.22;;;17.83;45.03
23659;BME280;12006;42.666;23.326;2023-02-19T11:59:47;-24388.88;;;17.82;45.18
23659;BME280;12006;42.666;23.326;2023-02-19T12:24:42;-24401.16;;;18.18;46.32
23659;BME280;12006;42.666;23.326;2023-02-19T12:27:38;-24398.25;;;18.09;46.30
23659;BME280;12006;42.666;23.326;2023-02-19T12:40:52;-24392.09;;;17.91;46.36
23659;BME280;12006;42.666;23.326;2023-02-19T12:43:22;-24393.81;;;17.96;47.02
23659;BME280;12006;42.666;23.326;2023-02-19T12:45:54;-24394.31;;;17.98;46.55
23659;BME280;12006;42.666;23.326;2023-02-19T12:53:52;-24383.56;;;17.66;47.53
23659;BME280;12006;42.666;23.326;2023-02-19T12:56:35;-24380.84;;;17.59;47.18
23659;BME280;12006;42.666;23.326;2023-02-19T12:59:14;-24380.31;;;17.57;47.08
23659;BME280;12006;42.666;23.326;2023-02-19T13:01:48;-24380.66;;;17.58;46.75
23659;BME280;12006;42.666;23.326;2023-02-19T13:07:04;-24377.59;;;17.49;47.42
23659;BME280;12006;42.666;23.326;2023-02-19T13:09:42;-24375.19;;;17.42;47.25
23659;BME280;12006;42.666;23.326;2023-02-19T13:12:20;-24374.34;;;17.40;46.86
23659;BME280;12006;42.666;23.326;2023-02-19T13:14:52;-24374.69;;;17.41;46.92
23659;BME280;12006;42.666;23.326;2023-02-19T13:17:30;-24370.06;;;17.27;47.07
23659;BME280;12006;42.666;23.326;2023-02-19T13:20:30;-24370.75;;;17.29;47.27
23659;BME280;12006;42.666;23.326;2023-02-19T13:23:05;-24367.16;;;17.19;47.85
23659;BME280;12006;42.666;23.326;2023-02-19T13:36:35;-24376.22;;;17.45;46.80
23659;BME280;12006;42.666;23.326;2023-02-19T13:39:04;-24374.34;;;17.40;45.96
23659;BME280;12006;42.666;23.326;2023-02-19T13:41:50;-24377.94;;;17.50;46.39
23659;BME280;12006;42.666;23.326;2023-02-19T13:44:23;-24377.75;;;17.50;46.58
23659;BME280;12006;42.666;23.326;2023-02-19T13:46:50;-24376.72;;;17.47;46.29
23659;BME280;12006;42.666;23.326;2023-02-19T13:51:57;-24382.03;;;17.62;45.96
23659;BME280;12006;42.666;23.326;2023-02-19T13:54:26;-24378.59;;;17.52;46.30
23659;BME280;12006;42.666;23.326;2023-02-19T13:57:28;-24375.53;;;17.43;46.52
23659;BME280;12006;42.666;23.326;2023-02-19T13:59:55;-24376.22;;;17.45;46.34
23659;BME280;12006;42.666;23.326;2023-02-19T14:02:33;-24375.19;;;17.42;45.94
23659;BME280;12006;42.666;23.326;2023-02-19T14:05:09;-24375.53;;;17.43;45.83
23659;BME280;12006;42.666;23.326;2023-02-19T14:07:36;-24377.06;;;17.48;45.72
23659;BME280;12006;42.666;23.326;2023-02-19T14:10:04;-24378.59;;;17.52;45.66
23659;BME280;12006;42.666;23.326;2023-02-19T14:12:34;-24377.25;;;17.48;45.61
23659;BME280;12006;42.666;23.326;2023-02-19T14:21:15;-24378.44;;;17.52;46.39
23659;BME280;12006;42.666;23.326;2023-02-19T14:23:41;-24378.78;;;17.53;46.21
23659;BME280;12006;42.666;23.326;2023-02-19T14:26:07;-24378.59;;;17.52;45.71
23659;BME280;12006;42.666;23.326;2023-02-19T14:28:41;-24377.25;;;17.48;47.03
23659;BME280;12006;42.666;23.326;2023-02-19T14:33:49;-24381.84;;;17.62;46.85
23659;BME280;12006;42.666;23.326;2023-02-19T14:39:15;-24386.47;;;17.75;46.24
23659;BME280;12006;42.666;23.326;2023-02-19T14:41:45;-24390.56;;;17.87;46.22